Time;durP1;ratioP1;P1;durP2;ratioP2;P2;SDS_P1;SDS_P2;PMS_P1;PMS_P2;Temp;Humidity;BMP_temperature;BMP_pressure;BME280_temperature;BME280_humidity;BME280_pressure;Samples;Min_cycle;Max_cycle;Signal;HPM_P1;HPM_P2
2022/06/03 00:00:50;;;;;;;1.65;1.20;;;;;;;11.32;100.00;101937.38;6226086;28;20693;-73
2022/06/03 00:04:06;;;;;;;2.65;1.65;;;;;;;11.24;100.00;101936.81;6225948;28;20494;-73
2022/06/03 00:07:26;;;;;;;1.92;1.48;;;;;;;11.18;100.00;101934.41;6226304;28;20053;-73
2022/06/03 00:10:54;;;;;;;5.53;1.67;;;;;;;11.11;100.00;101940.78;6226025;28;20594;-74
2022/06/03 00:14:18;;;;;;;2.33;1.65;;;;;;;11.10;100.00;101939.94;6225871;28;20061;-73
2022/06/03 00:17:38;;;;;;;2.75;1.30;;;;;;;11.01;100.00;101928.91;6226313;28;20046;-73
2022/06/03 00:20:54;;;;;;;2.08;1.60;;;;;;;10.98;100.00;101937.75;6225910;28;20128;-73
2022/06/03 00:24:15;;;;;;;1.77;1.42;;;;;;;10.92;100.00;101933.56;6225469;28;20054;-73
2022/06/03 00:27:49;;;;;;;1.98;1.75;;;;;;;10.87;100.00;101935.50;6225982;28;20100;-73
2022/06/03 00:31:06;;;;;;;1.77;1.15;;;;;;;10.83;100.00;101940.94;6222047;28;20049;-73
2022/06/03 00:34:26;;;;;;;4.10;1.45;;;;;;;10.90;100.00;101942.41;6225411;28;20069;-73
2022/06/03 00:37:31;;;;;;;;;;;;;;;10.86;100.00;101935.56;6226108;28;20058;-73
2022/06/03 00:40:52;;;;;;;2.10;1.45;;;;;;;10.81;100.00;101935.72;6225869;28;20296;-73
2022/06/03 00:44:12;;;;;;;2.00;1.30;;;;;;;10.81;100.00;101937.47;6225110;28;20058;-73
2022/06/03 00:47:37;;;;;;;2.22;1.50;;;;;;;10.73;100.00;101945.66;6225645;28;20049;-73
2022/06/03 00:50:52;;;;;;;2.72;1.70;;;;;;;10.69;100.00;101932.66;6225438;28;20053;-73
2022/06/03 00:54:26;;;;;;;3.03;1.73;;;;;;;10.70;100.00;101940.50;6224677;28;20051;-73
2022/06/03 00:57:56;;;;;;;1.52;1.20;;;;;;;10.69;100.00;101935.31;6215256;28;20054;-73
2022/06/03 01:01:11;;;;;;;2.47;1.45;;;;;;;10.61;100.00;101928.53;6224801;28;20448;-73
2022/06/03 01:04:36;;;;;;;5.30;1.60;;;;;;;10.57;100.00;101932.16;6223956;28;20053;-73
2022/06/03 01:07:53;;;;;;;4.82;1.73;;;;;;;10.53;100.00;101929.69;6223933;28;20049;-73
2022/06/03 01:11:19;;;;;;;3.33;1.80;;;;;;;10.48;100.00;101923.75;6224503;28;20057;-73
2022/06/03 01:14:35;;;;;;;3.03;2.10;;;;;;;10.44;100.00;101922.97;6224773;28;20077;-73
2022/06/03 01:17:51;;;;;;;4.57;1.85;;;;;;;10.47;100.00;101927.28;6224649;28;20046;-73
2022/06/03 01:21:07;;;;;;;3.08;1.80;;;;;;;10.41;100.00;101921.34;6224411;28;20422;-73
2022/06/03 01:24:51;;;;;;;4.95;1.70;;;;;;;10.38;100.00;101918.78;6224382;28;20057;-73
2022/06/03 01:28:23;;;;;;;4.75;1.80;;;;;;;10.32;100.00;101918.16;6190400;28;20488;-73
2022/06/03 01:31:45;;;;;;;1.92;1.52;;;;;;;10.25;100.00;101911.38;6183138;28;20054;-73
2022/06/03 01:35:02;;;;;;;2.00;1.42;;;;;;;10.20;100.00;101914.13;6199785;28;20043;-73
2022/06/03 01:38:13;;;;;;;2.45;1.60;;;;;;;10.18;100.00;101905.44;6200065;28;20414;-73
2022/06/03 01:41:29;;;;;;;2.75;1.55;;;;;;;10.16;100.00;101909.88;6199734;28;20061;-73
2022/06/03 01:44:49;;;;;;;2.17;1.80;;;;;;;10.20;100.00;101914.13;6210351;28;20046;-73
2022/06/03 01:48:19;;;;;;;2.55;1.65;;;;;;;10.20;100.00;101906.25;6222753;28;20046;-73
2022/06/03 01:52:06;;;;;;;2.88;2.22;;;;;;;10.16;100.00;101905.47;6221236;28;20050;-73
2022/06/03 01:55:55;;;;;;;2.72;2.08;;;;;;;10.21;100.00;101907.09;6198802;28;20065;-73
2022/06/03 01:59:37;;;;;;;1.80;1.60;;;;;;;10.18;100.00;101902.81;6218834;28;20057;-73
2022/06/03 02:03:05;;;;;;;1.98;1.65;;;;;;;10.11;100.00;101907.41;6223517;28;20053;-73
2022/06/03 02:06:40;;;;;;;3.58;2.10;;;;;;;10.04;100.00;101903.28;6223447;28;20045;-73
2022/06/03 02:10:11;;;;;;;3.45;2.00;;;;;;;10.03;100.00;101904.16;6223284;28;20129;-73
2022/06/03 02:13:43;;;;;;;2.42;2.00;;;;;;;10.03;100.00;101901.53;6223389;28;20418;-73
2022/06/03 02:17:08;;;;;;;4.13;1.90;;;;;;;9.97;100.00;101904.38;6219373;28;20054;-73
2022/06/03 02:20:59;;;;;;;4.18;2.97;;;;;;;9.96;100.00;101897.41;6223187;28;20054;-73
2022/06/03 02:24:26;;;;;;;4.35;2.00;;;;;;;9.85;100.00;101895.09;6222727;28;20522;-73
2022/06/03 02:27:53;;;;;;;1.50;1.17;;;;;;;9.80;100.00;101890.91;6199162;28;20042;-73
2022/06/03 02:31:26;;;;;;;3.15;2.40;;;;;;;9.73;100.00;101903.38;6198520;28;20050;-73
2022/06/03 02:34:54;;;;;;;2.67;1.90;;;;;;;9.72;100.00;101903.41;6215373;28;20517;-73
2022/06/03 02:38:16;;;;;;;3.42;2.13;;;;;;;9.71;100.00;101907.81;6196669;28;20497;-73
2022/06/03 02:41:51;;;;;;;2.45;1.90;;;;;;;9.68;100.00;101901.81;6198210;28;20403;-73
2022/06/03 02:45:12;;;;;;;3.03;2.03;;;;;;;9.68;100.00;101907.06;6198370;28;20072;-73
2022/06/03 02:48:38;;;;;;;7.00;2.40;;;;;;;9.66;100.00;101901.84;6198395;28;20050;-73
2022/06/03 02:52:18;;;;;;;5.25;2.20;;;;;;;9.62;100.00;101901.06;6198114;28;20070;-72
2022/06/03 02:55:59;;;;;;;4.10;1.90;;;;;;;9.61;100.00;101898.50;6210452;28;20049;-73
2022/06/03 02:59:17;;;;;;;5.85;2.10;;;;;;;9.55;100.00;101889.06;6221762;28;20054;-73
2022/06/03 03:02:39;;;;;;;2.97;2.10;;;;;;;9.51;100.00;101897.94;6222171;28;20494;-73
2022/06/03 03:06:09;;;;;;;2.10;1.88;;;;;;;9.48;100.00;101905.03;6222210;28;20049;-73
2022/06/03 03:09:25;;;;;;;4.57;2.88;;;;;;;9.47;100.00;101903.31;6222497;28;20049;-73
2022/06/03 03:12:50;;;;;;;2.47;2.00;;;;;;;9.47;100.00;101905.94;6222265;28;20053;-73
2022/06/03 03:16:27;;;;;;;2.70;2.20;;;;;;;9.42;100.00;101913.97;6222029;28;20512;-73
2022/06/03 03:19:45;;;;;;;3.58;1.98;;;;;;;9.37;100.00;101900.97;6222199;28;20050;-73
2022/06/03 03:23:03;;;;;;;3.33;2.15;;;;;;;9.37;100.00;101906.22;6222266;28;20395;-73
2022/06/03 03:26:16;;;;;;;4.40;2.50;;;;;;;9.33;100.00;101899.34;6221433;28;20049;-73
2022/06/03 03:29:36;;;;;;;3.50;2.13;;;;;;;9.27;100.00;101898.69;6221816;28;20465;-73
2022/06/03 03:33:03;;;;;;;4.88;2.45;;;;;;;9.24;100.00;101899.63;6222096;28;20050;-74
2022/06/03 03:36:42;;;;;;;3.75;2.13;;;;;;;9.27;100.00;101909.16;6221515;28;20072;-73
2022/06/03 03:40:07;;;;;;;;;;;;;;;9.26;100.00;101903.03;6222295;28;20053;-73
2022/06/03 03:43:39;;;;;;;3.40;2.30;;;;;;;9.18;100.00;101902.44;6222254;28;19921;-73
2022/06/03 03:47:11;;;;;;;3.05;2.05;;;;;;;9.15;100.00;101900.75;6221404;28;20045;-73
2022/06/03 03:50:42;;;;;;;3.85;2.17;;;;;;;9.12;100.00;101902.59;6221684;28;20049;-73
2022/06/03 03:54:30;;;;;;;4.32;2.38;;;;;;;9.04;100.00;101900.19;6221168;28;20050;-73
2022/06/03 03:58:12;;;;;;;4.07;2.55;;;;;;;9.04;100.00;101907.22;6210368;28;20426;-73
2022/06/03 04:02:01;;;;;;;4.40;2.30;;;;;;;9.06;100.00;101910.63;6218357;28;20046;-73
2022/06/03 04:05:39;;;;;;;4.35;2.35;;;;;;;9.10;100.00;101910.50;6146059;28;20051;-73
2022/06/03 04:09:06;;;;;;;3.78;2.22;;;;;;;9.08;100.00;101909.69;6217754;28;20046;-73
2022/06/03 04:12:30;;;;;;;4.32;2.75;;;;;;;9.10;100.00;101901.78;6221692;28;20053;-72
2022/06/03 04:16:02;;;;;;;3.83;2.75;;;;;;;9.12;100.00;101902.59;6221024;28;20421;-73
2022/06/03 04:19:53;;;;;;;14.63;7.10;;;;;;;9.25;100.00;101909.19;6221687;28;20046;-73
2022/06/03 04:23:17;;;;;;;3.60;2.42;;;;;;;9.27;100.00;101907.41;6194409;28;20442;-73
2022/06/03 04:26:54;;;;;;;4.25;2.35;;;;;;;9.24;100.00;101910.09;6197198;28;20058;-73
2022/06/03 04:30:31;;;;;;;3.80;2.45;;;;;;;9.23;100.00;101908.41;6217353;28;20414;-73
2022/06/03 04:33:54;;;;;;;1.98;1.77;;;;;;;9.22;100.00;101906.69;6191144;28;20586;-73
2022/06/03 04:37:40;;;;;;;3.60;2.10;;;;;;;9.25;100.00;101913.59;6221404;28;20053;-73
2022/06/03 04:41:17;;;;;;;5.43;3.00;;;;;;;9.25;100.00;101905.72;6222832;28;20052;-73
2022/06/03 04:45:06;;;;;;;4.03;2.55;;;;;;;9.28;100.00;101901.25;6204942;28;20049;-73
2022/06/03 04:48:54;;;;;;;5.97;2.38;;;;;;;9.40;100.00;101900.00;6225570;28;20049;-73
2022/06/03 04:52:43;;;;;;;5.20;2.60;;;;;;;9.54;100.00;101895.22;6219640;28;20405;-73
2022/06/03 04:56:19;;;;;;;3.20;2.28;;;;;;;9.65;100.00;101898.38;6224852;28;20057;-73
2022/06/03 04:59:54;;;;;;;3.78;2.30;;;;;;;9.71;100.00;101901.69;6225018;28;20060;-72
2022/06/03 05:03:46;;;;;;;4.00;2.13;;;;;;;9.81;100.00;101897.88;6213620;28;20053;-73
2022/06/03 05:07:29;;;;;;;5.28;2.20;;;;;;;9.80;100.00;101894.41;6210512;28;20045;-73
2022/06/03 05:11:13;;;;;;;4.40;2.40;;;;;;;9.84;100.00;101889.91;6222671;28;20049;-73
2022/06/03 05:14:51;;;;;;;4.40;2.53;;;;;;;9.98;100.00;101890.31;6217369;28;20049;-73
2022/06/03 05:18:20;;;;;;;3.10;2.40;;;;;;;9.95;100.00;101884.31;6224766;28;20057;-73
2022/06/03 05:21:56;;;;;;;4.95;3.00;;;;;;;9.91;100.00;101888.81;6224586;28;20054;-73
2022/06/03 05:25:32;;;;;;;5.72;2.40;;;;;;;10.00;100.00;101882.41;6224177;28;20429;-74
2022/06/03 05:29:01;;;;;;;3.67;2.45;;;;;;;10.11;100.00;101885.53;6189387;28;20046;-73
2022/06/03 05:32:31;;;;;;;5.03;2.40;;;;;;;10.19;100.00;101887.91;6224266;28;20133;-73
2022/06/03 05:36:16;;;;;;;2.95;2.38;;;;;;;10.30;100.00;101881.41;6224314;28;20056;-73
2022/06/03 05:39:50;;;;;;;3.95;2.42;;;;;;;10.35;100.00;101881.25;6224453;28;20061;-73
2022/06/03 05:43:19;;;;;;;7.40;2.92;;;;;;;10.44;100.00;101877.44;6224228;28;20050;-73
2022/06/03 05:46:34;;;;;;;4.97;2.63;;;;;;;10.54;100.00;101881.50;6223943;28;20127;-73
2022/06/03 05:49:48;;;;;;;10.65;4.65;;;;;;;10.65;100.00;101888.06;6223954;28;20050;-73
2022/06/03 05:53:08;;;;;;;7.03;3.20;;;;;;;10.71;100.00;101884.38;6224012;28;20057;-73
2022/06/03 05:56:35;;;;;;;6.82;2.92;;;;;;;10.81;100.00;101885.78;6223520;28;20046;-73
2022/06/03 05:59:52;;;;;;;4.30;2.72;;;;;;;10.87;100.00;101896.06;6224091;28;20065;-73
2022/06/03 06:03:12;;;;;;;5.25;3.05;;;;;;;10.95;100.00;101890.53;6224069;28;20050;-73
2022/06/03 06:06:22;;;;;;;;;;;;;;;11.01;100.00;101895.56;6223528;28;20533;-73
2022/06/03 06:09:42;;;;;;;3.55;2.60;;;;;;;11.13;100.00;101894.25;6223885;28;19922;-73
2022/06/03 06:12:53;;;;;;;3.47;2.40;;;;;;;11.23;100.00;101893.00;6223753;28;20057;-73
2022/06/03 06:16:07;;;;;;;3.17;2.25;;;;;;;11.33;100.00;101878.56;6223350;28;20042;-73
2022/06/03 06:19:15;;;;;;;4.45;2.42;;;;;;;11.42;100.00;101872.94;6223699;28;20103;-73
2022/06/03 06:22:27;;;;;;;4.20;2.72;;;;;;;11.54;100.00;101874.25;6223013;28;20054;-73
2022/06/03 06:25:37;;;;;;;4.53;2.47;;;;;;;11.60;100.00;101868.72;6222897;28;20053;-73
2022/06/03 06:29:01;;;;;;;5.65;2.28;;;;;;;11.71;100.00;101860.41;6223201;28;20578;-73
2022/06/03 06:32:36;;;;;;;3.17;2.38;;;;;;;11.83;100.00;101870.47;6223186;28;20061;-73
2022/06/03 06:36:05;;;;;;;2.70;2.40;;;;;;;11.95;100.00;101870.91;6222742;28;20057;-73
2022/06/03 06:39:18;;;;;;;4.13;2.67;;;;;;;12.07;100.00;101875.66;6223058;28;20046;-73
2022/06/03 06:42:33;;;;;;;3.35;2.35;;;;;;;12.16;100.00;101877.91;6222857;28;20057;-73
2022/06/03 06:45:52;;;;;;;3.50;2.40;;;;;;;12.30;100.00;101875.53;6218718;28;20061;-74
2022/06/03 06:49:12;;;;;;;2.65;2.03;;;;;;;12.40;100.00;101876.88;6214775;28;20516;-73
2022/06/03 06:52:37;;;;;;;2.22;1.90;;;;;;;12.51;100.00;101872.94;6222299;28;20050;-73
2022/06/03 06:55:53;;;;;;;3.33;2.30;;;;;;;12.60;100.00;101876.00;6221416;28;20705;-73
2022/06/03 06:59:00;;;;;;;2.60;1.83;;;;;;;12.72;100.00;101879.91;6222215;28;20066;-74
2022/06/03 07:02:08;;;;;;;4.03;1.75;;;;;;;12.82;100.00;101881.19;6220055;28;20409;-73
2022/06/03 07:05:18;;;;;;;2.53;1.90;;;;;;;12.98;100.00;101877.88;6221680;28;20060;-74
2022/06/03 07:08:22;;;;;;;;;;;;;;;13.19;100.00;101877.75;6222748;28;20760;-74
2022/06/03 07:11:27;;;;;;;1.75;1.30;;;;;;;13.29;100.00;101875.56;6222290;28;19928;-73
2022/06/03 07:14:33;;;;;;;2.05;1.52;;;;;;;13.35;100.00;101874.41;6221967;28;20049;-74
2022/06/03 07:21:16;;;;;;;1.88;1.48;;;;;;;13.51;100.00;101870.13;6221309;28;20089;-74
2022/06/03 07:24:22;;;;;;;2.03;1.35;;;;;;;13.57;100.00;101858.41;6220240;28;20042;-73
2022/06/03 07:27:31;;;;;;;2.55;1.65;;;;;;;13.66;100.00;101856.19;6220468;28;20042;-74
2022/06/03 07:30:40;;;;;;;1.95;1.45;;;;;;;13.75;100.00;101848.75;6220326;28;20057;-74
2022/06/03 07:33:53;;;;;;;4.40;1.50;;;;;;;13.87;100.00;101854.28;6218509;28;20398;-73
2022/06/03 07:37:00;;;;;;;1.40;1.30;;;;;;;13.93;100.00;101848.69;6217884;28;20054;-73
2022/06/03 07:40:07;;;;;;;2.28;1.00;;;;;;;14.05;100.00;101843.75;6221168;28;20387;-74
2022/06/03 07:43:17;;;;;;;1.08;1.00;;;;;;;14.14;100.00;101835.34;6221835;28;20045;-74
2022/06/03 07:46:24;;;;;;;1.13;1.00;;;;;;;14.23;100.00;101831.38;6221449;28;20526;-73
2022/06/03 07:49:28;;;;;;;0.98;0.90;;;;;;;14.38;98.95;101830.56;6221989;28;20533;-74
2022/06/03 07:52:40;;;;;;;3.75;1.02;;;;;;;14.55;97.78;101833.22;6221400;28;20521;-74
2022/06/03 07:55:42;;;;;;;2.65;1.50;;;;;;;14.68;95.68;101834.28;6197364;28;20073;-73
2022/06/03 07:58:52;;;;;;;1.42;1.10;;;;;;;14.81;92.73;101826.56;6197382;28;20046;-74
2022/06/03 08:01:59;;;;;;;2.17;1.48;;;;;;;14.92;91.54;101832.13;6197388;28;20058;-74
2022/06/03 08:05:09;;;;;;;1.98;1.02;;;;;;;14.96;92.75;101828.38;6196876;28;20421;-74
2022/06/03 08:11:34;;;;;;;1.00;0.90;;;;;;;15.07;94.70;101819.84;6197037;28;20050;-73
2022/06/03 08:14:36;;;;;;;1.20;1.10;;;;;;;15.15;94.33;101811.47;6199580;28;20058;-74
2022/06/03 08:17:37;;;;;;;1.77;1.50;;;;;;;15.16;93.03;101815.81;6201717;28;20046;-74
2022/06/03 08:20:47;;;;;;;2.05;1.45;;;;;;;15.20;94.39;101818.22;6201702;28;20061;-74
2022/06/03 08:23:49;;;;;;;3.00;1.30;;;;;;;15.28;93.01;101809.84;6213168;28;20050;-74
2022/06/03 08:26:53;;;;;;;5.97;1.60;;;;;;;15.42;92.66;101809.94;6226036;28;20068;-73
2022/06/03 08:29:59;;;;;;;1.25;1.13;;;;;;;15.46;92.06;101807.97;6225447;28;20490;-74
2022/06/03 08:33:05;;;;;;;1.40;1.23;;;;;;;15.54;93.20;101807.53;6226184;28;20050;-74
2022/06/03 08:36:13;;;;;;;1.85;1.40;;;;;;;15.65;91.16;101811.28;6225455;28;20050;-74
2022/06/03 08:39:19;;;;;;;2.42;1.50;;;;;;;15.79;89.09;101817.59;6225945;28;20046;-73
2022/06/03 08:42:31;;;;;;;2.75;1.20;;;;;;;15.89;88.60;101811.66;6225403;28;20057;-74
2022/06/03 08:45:39;;;;;;;1.42;1.10;;;;;;;15.95;87.91;101805.16;6225249;28;20129;-73
2022/06/03 08:48:44;;;;;;;6.50;1.42;;;;;;;16.01;87.31;101802.13;6225580;28;20049;-74
2022/06/03 08:51:50;;;;;;;1.42;1.10;;;;;;;16.05;88.32;101801.03;6225253;28;20073;-74
2022/06/03 08:54:54;;;;;;;1.50;1.30;;;;;;;16.21;87.74;101803.59;6224735;28;20060;-73
2022/06/03 08:58:02;;;;;;;1.60;1.33;;;;;;;16.36;81.90;101804.50;6225225;28;20053;-74
2022/06/03 09:01:19;;;;;;;1.40;1.20;;;;;;;16.38;81.48;101802.59;6224945;28;20420;-74
2022/06/03 09:04:27;;;;;;;1.85;1.10;;;;;;;16.42;80.39;101804.09;6224995;28;20054;-74
2022/06/03 09:07:37;;;;;;;2.65;1.90;;;;;;;16.48;81.48;101793.09;6224903;28;20144;-73
2022/06/03 09:10:44;;;;;;;1.40;1.23;;;;;;;16.54;81.88;101798.06;6225003;28;20050;-73
2022/06/03 09:13:52;;;;;;;2.17;1.20;;;;;;;16.56;80.31;101793.50;6224459;28;20054;-74
2022/06/03 09:16:58;;;;;;;1.27;1.05;;;;;;;16.64;80.90;101796.53;6224818;28;20425;-74
2022/06/03 09:20:05;;;;;;;0.90;0.90;;;;;;;16.83;78.16;101801.56;6224414;28;20061;-74
2022/06/03 09:23:11;;;;;;;1.83;1.27;;;;;;;16.93;77.13;101793.88;6224602;28;20054;-74
2022/06/03 09:26:23;;;;;;;1.92;1.60;;;;;;;17.03;75.93;101784.38;6223410;28;20476;-74
2022/06/03 09:29:25;;;;;;;1.13;0.80;;;;;;;17.19;74.05;101790.41;6224698;28;20050;-73
2022/06/03 09:32:27;;;;;;;4.00;1.25;;;;;;;17.37;71.69;101787.53;6223923;28;20057;-74
2022/06/03 09:35:29;;;;;;;1.33;1.10;;;;;;;17.42;70.64;101782.75;6224126;28;20058;-74
2022/06/03 09:38:39;;;;;;;1.30;1.20;;;;;;;17.50;70.19;101769.81;6224148;28;20042;-74
2022/06/03 09:41:44;;;;;;;1.10;0.95;;;;;;;17.55;71.04;101767.72;6224014;28;20420;-74
2022/06/03 09:44:48;;;;;;;1.15;1.05;;;;;;;17.58;71.01;101770.16;6224007;28;20050;-74
2022/06/03 09:47:50;;;;;;;1.00;0.90;;;;;;;17.65;68.81;101768.78;6224269;28;20056;-74
2022/06/03 09:50:53;;;;;;;1.67;1.15;;;;;;;17.81;68.93;101763.34;6223752;28;20053;-74
2022/06/03 09:53:55;;;;;;;1.00;0.88;;;;;;;17.84;67.10;101765.78;6223611;28;20054;-74
2022/06/03 09:57:05;;;;;;;1.15;0.80;;;;;;;17.90;65.19;101759.22;6223877;28;20042;-74
2022/06/03 10:00:09;;;;;;;;;;;;;;;17.96;65.93;101759.63;6224192;28;20053;-74
2022/06/03 10:03:11;;;;;;;0.73;0.73;;;;;;;18.03;65.58;101754.72;6223785;28;20423;-74
2022/06/03 10:06:42;;;;;;;1.17;0.90;;;;;;;18.05;63.18;101754.66;6223462;28;20045;-74
2022/06/03 10:12:58;;;;;;;1.17;0.82;;;;;;;18.34;63.13;101744.63;6223712;28;20494;-74
2022/06/03 10:16:01;;;;;;;3.22;1.20;;;;;;;18.42;59.86;101737.81;6223013;28;20061;-74
2022/06/03 10:19:02;;;;;;;0.77;0.70;;;;;;;18.54;56.35;101743.25;6223870;28;20054;-74
2022/06/03 10:22:09;;;;;;;1.58;1.13;;;;;;;18.66;57.23;101726.38;6222670;28;20057;-74
2022/06/03 10:25:13;;;;;;;1.05;0.82;;;;;;;18.71;57.66;101730.47;6223164;28;20152;-74
2022/06/03 10:28:15;;;;;;;1.08;0.93;;;;;;;18.74;57.48;101729.38;6223260;28;20085;-73
2022/06/03 10:31:19;;;;;;;1.45;1.10;;;;;;;18.86;59.42;101728.50;6223188;28;20049;-76
2022/06/03 10:34:24;;;;;;;0.95;0.85;;;;;;;19.08;59.41;101724.28;6222798;28;20497;-75
2022/06/03 10:37:26;;;;;;;0.77;0.77;;;;;;;19.12;59.76;101723.94;6222322;28;20423;-76
2022/06/03 10:40:29;;;;;;;1.00;0.90;;;;;;;19.16;59.16;101716.53;6222623;28;20437;-75
2022/06/03 10:43:32;;;;;;;1.00;0.80;;;;;;;19.31;58.58;101719.91;6222935;28;20509;-76
2022/06/03 10:46:34;;;;;;;60.72;27.92;;;;;;;19.37;58.51;101722.94;6222835;28;20437;-75
2022/06/03 10:49:38;;;;;;;1.48;1.20;;;;;;;19.45;57.42;101714.38;6222569;28;20045;-76
2022/06/03 11:02:52;;;;;;;1.30;0.98;;;;;;;20.20;58.12;101701.44;6222608;28;20045;-76
2022/06/03 11:05:53;;;;;;;1.73;1.20;;;;;;;20.40;57.26;101704.38;6222115;28;20058;-75
2022/06/03 11:08:58;;;;;;;1.80;0.90;;;;;;;20.56;55.33;101696.84;6222244;28;20045;-76
2022/06/03 11:12:03;;;;;;;1.77;1.10;;;;;;;20.85;56.15;101681.16;6221288;28;20144;-75
2022/06/03 11:15:25;;;;;;;2.55;0.95;;;;;;;20.93;53.93;101692.03;6220942;28;20076;-76
2022/06/03 11:18:31;;;;;;;1.25;1.00;;;;;;;21.06;51.95;101693.72;6219283;28;20045;-76
2022/06/03 11:21:33;;;;;;;1.33;1.00;;;;;;;21.16;52.63;101681.28;6219062;28;20054;-76
2022/06/03 11:24:35;;;;;;;0.82;0.82;;;;;;;21.32;50.43;101676.38;6220764;28;20529;-76
2022/06/03 11:27:51;;;;;;;1.10;1.00;;;;;;;21.57;49.81;101668.94;6220069;28;20049;-76
2022/06/03 11:30:57;;;;;;;2.70;1.05;;;;;;;21.94;51.48;101666.66;6215557;28;20050;-76
2022/06/03 11:34:05;;;;;;;0.85;0.70;;;;;;;22.18;46.59;101661.03;6221257;28;20464;-77
2022/06/03 11:37:13;;;;;;;1.20;0.90;;;;;;;22.53;46.35;101649.88;6220176;28;20417;-76
2022/06/03 11:40:20;;;;;;;0.93;0.93;;;;;;;22.81;45.49;101644.69;6221815;28;20514;-76
2022/06/03 11:43:31;;;;;;;1.10;0.90;;;;;;;23.15;46.27;101632.56;6218484;28;20320;-76
2022/06/03 11:46:36;;;;;;;1.33;1.00;;;;;;;23.45;45.14;101633.41;6220055;28;20054;-76
2022/06/03 11:49:38;;;;;;;0.77;0.77;;;;;;;23.85;45.16;101640.41;6222954;28;20050;-77
2022/06/03 11:52:39;;;;;;;2.28;0.90;;;;;;;23.96;41.02;101634.84;6225660;28;20063;-76
2022/06/03 11:55:41;;;;;;;0.80;0.70;;;;;;;24.04;41.07;101626.91;6225111;28;20054;-74
2022/06/03 11:58:55;;;;;;;0.70;0.70;;;;;;;24.25;42.62;101621.25;6226530;28;20041;-74
2022/06/03 12:02:03;;;;;;;0.75;0.70;;;;;;;24.48;41.83;101616.34;6226562;28;20141;-74
2022/06/03 12:05:08;;;;;;;0.90;0.70;;;;;;;24.57;40.12;101615.44;6226382;28;20057;-74
2022/06/03 12:08:15;;;;;;;2.28;0.77;;;;;;;24.76;42.45;101617.16;6226532;28;20061;-74
2022/06/03 12:14:49;;;;;;;0.68;0.68;;;;;;;24.75;38.23;101607.38;6226042;28;20421;-74
2022/06/03 12:17:50;;;;;;;0.85;0.60;;;;;;;24.72;39.78;101605.88;6225972;28;20510;-75
2022/06/03 12:20:55;;;;;;;1.17;0.80;;;;;;;24.83;40.63;101599.41;6225877;28;20046;-74
2022/06/03 12:23:57;;;;;;;0.63;0.63;;;;;;;24.74;37.38;101597.63;6225923;28;20077;-75
2022/06/03 12:27:03;;;;;;;0.80;0.80;;;;;;;24.67;40.29;101588.50;6225922;28;20391;-76
2022/06/03 12:30:23;;;;;;;0.95;0.80;;;;;;;25.18;40.84;101586.97;6226067;28;20077;-75
2022/06/03 12:33:29;;;;;;;1.30;0.80;;;;;;;25.46;39.30;101588.50;6226002;28;20512;-75
2022/06/03 12:36:38;;;;;;;1.48;1.02;;;;;;;25.37;37.52;101581.38;6225897;28;20054;-74
2022/06/03 12:39:58;;;;;;;1.55;0.70;;;;;;;25.28;38.81;101582.31;6225578;28;20054;-75
2022/06/03 12:42:59;;;;;;;0.70;0.70;;;;;;;25.39;39.96;101571.31;6223919;28;20065;-75
2022/06/03 12:46:06;;;;;;;0.82;0.68;;;;;;;25.73;36.44;101568.63;6225416;28;20045;-75
2022/06/03 12:49:18;;;;;;;0.75;0.70;;;;;;;25.80;37.56;101564.34;6225411;28;20133;-75
2022/06/03 12:52:38;;;;;;;2.28;0.77;;;;;;;25.80;38.23;101568.88;6225308;28;20057;-75
2022/06/03 12:55:42;;;;;;;0.70;0.70;;;;;;;26.04;36.44;101562.75;6225225;28;20058;-75
2022/06/03 12:58:51;;;;;;;1.25;0.95;;;;;;;26.11;35.17;101558.38;6225540;28;20146;-76
2022/06/03 13:02:01;;;;;;;1.25;0.85;;;;;;;25.97;38.85;101567.06;6224576;28;20053;-75
2022/06/03 13:05:24;;;;;;;0.70;0.70;;;;;;;26.09;36.33;101576.56;6225081;28;20116;-75
2022/06/03 13:09:34;;;;;;;4.47;0.77;;;;;;;26.48;37.12;101565.22;6225226;28;20046;-75
2022/06/03 13:12:16;;;;;;;1.60;0.60;;;;;;;26.62;34.83;101561.06;6224602;28;20543;-75
2022/06/03 13:15:44;;;;;;;0.68;0.68;;;;;;;26.62;35.74;101551.13;6224676;28;20409;-75
2022/06/03 13:18:48;;;;;;;1.23;0.70;;;;;;;26.49;36.92;101553.47;6224614;28;20134;-75
2022/06/03 13:22:07;;;;;;;1.10;0.70;;;;;;;26.08;33.97;101533.63;6224696;28;20053;-75
2022/06/03 13:25:27;;;;;;;0.60;0.60;;;;;;;25.78;36.14;101534.00;6224047;28;20128;-76
2022/06/03 13:28:37;;;;;;;0.95;0.85;;;;;;;25.83;36.59;101536.22;6225049;28;20046;-75
2022/06/03 13:32:01;;;;;;;0.90;0.80;;;;;;;25.94;35.58;101524.31;6224646;28;20046;-75
2022/06/03 13:35:19;;;;;;;0.70;0.70;;;;;;;25.78;36.69;101535.88;6224362;28;20041;-75
2022/06/03 13:38:27;;;;;;;0.60;0.60;;;;;;;26.13;36.92;101528.59;6225011;28;20053;-75
2022/06/03 13:45:20;;;;;;;1.13;0.80;;;;;;;26.42;35.38;101533.53;6222261;28;20049;-75
2022/06/03 13:48:27;;;;;;;0.82;0.65;;;;;;;26.19;36.63;101527.91;6224028;28;20136;-75
2022/06/03 13:51:48;;;;;;;1.38;0.90;;;;;;;25.50;36.50;101513.66;6224003;28;20058;-76
2022/06/03 13:54:54;;;;;;;1.90;0.73;;;;;;;25.17;39.04;101516.19;6224166;28;20054;-75
2022/06/03 13:58:01;;;;;;;1.38;0.73;;;;;;;24.96;39.13;101511.13;6224123;28;20046;-75
2022/06/03 14:01:07;;;;;;;1.13;0.80;;;;;;;25.17;38.80;101513.47;6223699;28;20570;-75
2022/06/03 14:04:17;;;;;;;0.80;0.80;;;;;;;25.69;38.39;101517.94;6223850;28;20050;-75
2022/06/03 14:07:33;;;;;;;0.70;0.70;;;;;;;26.04;37.67;101506.16;6224117;28;20050;-76
2022/06/03 14:10:44;;;;;;;1.35;0.90;;;;;;;25.76;36.14;101510.97;6223492;28;20050;-76
2022/06/03 14:13:54;;;;;;;1.45;0.80;;;;;;;25.40;37.40;101511.09;6223315;28;20057;-76
2022/06/03 14:16:59;;;;;;;2.38;0.80;;;;;;;25.24;40.33;101517.22;6223359;28;20056;-75
2022/06/03 14:20:07;;;;;;;0.77;0.75;;;;;;;25.55;38.05;101512.16;6222973;28;20053;-75
2022/06/03 14:23:30;;;;;;;1.05;0.77;;;;;;;25.73;39.39;101516.63;6223635;28;20061;-75
2022/06/03 14:26:37;;;;;;;0.70;0.70;;;;;;;25.80;37.71;101531.19;6222788;28;20061;-76
2022/06/03 14:29:43;;;;;;;0.65;0.60;;;;;;;25.69;37.35;101523.34;6223650;28;20046;-76
2022/06/03 14:32:48;;;;;;;0.63;0.63;;;;;;;25.48;37.18;101515.66;6223402;28;20053;-75
2022/06/03 14:35:55;;;;;;;0.70;0.65;;;;;;;25.30;39.30;101505.00;6222917;28;20050;-75
2022/06/03 14:39:02;;;;;;;1.88;0.75;;;;;;;24.98;40.58;101500.19;6223253;28;20053;-76
2022/06/03 14:42:08;;;;;;;1.30;1.05;;;;;;;24.73;38.76;101504.56;6222842;28;20046;-75
2022/06/03 14:45:14;;;;;;;0.85;0.80;;;;;;;24.57;38.49;101505.25;6221089;28;20050;-76
2022/06/03 14:48:21;;;;;;;1.48;0.93;;;;;;;24.60;40.96;101513.00;6220316;28;20497;-75
2022/06/03 14:51:41;;;;;;;0.85;0.85;;;;;;;24.69;41.39;101509.38;6217461;28;20054;-76
2022/06/03 14:54:51;;;;;;;0.95;0.77;;;;;;;24.89;39.75;101510.06;6222681;28;20057;-76
2022/06/03 14:57:58;;;;;;;0.85;0.80;;;;;;;24.70;38.36;101500.31;6222689;28;20081;-75
2022/06/03 15:01:19;;;;;;;0.80;0.80;;;;;;;24.21;38.75;101501.66;6221219;28;20057;-76
2022/06/03 15:04:29;;;;;;;0.95;0.90;;;;;;;24.01;42.27;101511.72;6222373;28;20056;-76
2022/06/03 15:07:34;;;;;;;0.60;0.60;;;;;;;24.07;42.34;101505.72;6221191;28;20056;-75
2022/06/03 15:10:45;;;;;;;1.50;0.55;;;;;;;24.10;42.25;101512.66;6222029;28;20057;-75
2022/06/03 15:13:50;;;;;;;3.42;0.90;;;;;;;24.13;41.11;101510.50;6222426;28;20050;-75
2022/06/03 15:16:54;;;;;;;1.45;0.80;;;;;;;23.85;41.85;101512.38;6215404;28;20107;-75
2022/06/03 15:19:58;;;;;;;0.80;0.75;;;;;;;23.60;43.42;101510.34;6220525;28;20425;-75
2022/06/03 15:22:59;;;;;;;1.27;0.80;;;;;;;23.35;42.86;101511.88;6215795;28;20054;-76
2022/06/03 15:26:04;;;;;;;0.80;0.80;;;;;;;23.36;45.12;101514.38;6215929;28;20057;-75
2022/06/03 15:29:09;;;;;;;0.90;0.90;;;;;;;23.40;45.44;101509.59;6222223;28;20053;-75
2022/06/03 15:32:12;;;;;;;1.65;0.70;;;;;;;23.43;45.53;101514.63;6218348;28;20049;-76
2022/06/03 15:35:17;;;;;;;3.00;1.00;;;;;;;23.42;43.83;101512.94;6221157;28;20524;-75
2022/06/03 15:38:24;;;;;;;0.73;0.73;;;;;;;23.34;44.75;101505.63;6219498;28;20079;-76